sensor_id;sensor_type;location;lat;lon;timestamp;pressure;altitude;pressure_sealevel;temperature;humidity
45793;BME280;31495;42.740;22.908;2024-03-23T00:53:11;93163.25;;;1.87;63.99
45793;BME280;31495;42.740;22.908;2024-03-23T00:54:10;93165.81;;;1.95;63.72
45793;BME280;31495;42.740;22.908;2024-03-23T00:55:10;93162.31;;;1.96;63.46
45793;BME280;31495;42.740;22.908;2024-03-23T00:56:09;93160.22;;;2.00;63.37
45793;BME280;31495;42.740;22.908;2024-03-23T00:57:08;93167.41;;;1.96;63.50
45793;BME280;31495;42.740;22.908;2024-03-23T00:58:08;93160.38;;;1.90;63.58
45793;BME280;31495;42.740;22.908;2024-03-23T00:59:07;93165.16;;;1.93;63.41
45793;BME280;31495;42.740;22.908;2024-03-23T01:00:07;93165.81;;;1.87;63.71
45793;BME280;31495;42.740;22.908;2024-03-23T01:01:09;93164.22;;;1.94;63.72
45793;BME280;31495;42.740;22.908;2024-03-23T01:02:09;93164.53;;;1.99;63.95
45793;BME280;31495;42.740;22.908;2024-03-23T01:03:08;93162.31;;;1.96;63.92
45793;BME280;31495;42.740;22.908;2024-03-23T01:04:07;93163.28;;;2.04;63.86
45793;BME280;31495;42.740;22.908;2024-03-23T01:05:06;93157.06;;;2.06;63.87
45793;BME280;31495;42.740;22.908;2024-03-23T01:06:05;93154.34;;;2.08;63.64
45793;BME280;31495;42.740;22.908;2024-03-23T01:07:05;93154.03;;;2.02;63.40
45793;BME280;31495;42.740;22.908;2024-03-23T01:08:04;93162.16;;;1.98;63.22
45793;BME280;31495;42.740;22.908;2024-03-23T01:09:03;93155.78;;;2.02;63.35
45793;BME280;31495;42.740;22.908;2024-03-23T01:10:03;93163.28;;;2.04;63.15
45793;BME280;31495;42.740;22.908;2024-03-23T01:11:03;93163.44;;;2.02;62.90
45793;BME280;31495;42.740;22.908;2024-03-23T01:12:03;93161.03;;;1.92;63.32
45793;BME280;31495;42.740;22.908;2024-03-23T01:13:02;93160.22;;;2.00;63.17
45793;BME280;31495;42.740;22.908;2024-03-23T01:14:02;93156.41;;;1.88;63.63
45793;BME280;31495;42.740;22.908;2024-03-23T01:15:02;93167.06;;;1.83;63.72
45793;BME280;31495;42.740;22.908;2024-03-23T01:16:02;93167.53;;;1.87;63.59
45793;BME280;31495;42.740;22.908;2024-03-23T01:17:01;93166.28;;;1.82;63.42
45793;BME280;31495;42.740;22.908;2024-03-23T01:18:01;93166.88;;;1.76;63.50
45793;BME280;31495;42.740;22.908;2024-03-23T01:19:00;93164.16;;;1.70;63.88
45793;BME280;31495;42.740;22.908;2024-03-23T01:19:59;93162.41;;;1.70;64.06
45793;BME280;31495;42.740;22.908;2024-03-23T01:20:59;93165.28;;;1.75;63.69
45793;BME280;31495;42.740;22.908;2024-03-23T01:21:58;93162.88;;;1.74;63.92
45793;BME280;31495;42.740;22.908;2024-03-23T01:22:58;93159.38;;;1.75;64.14
45793;BME280;31495;42.740;22.908;2024-03-23T01:23:57;93161.63;;;1.78;63.86
45793;BME280;31495;42.740;22.908;2024-03-23T01:24:56;93163.72;;;1.82;63.57
45793;BME280;31495;42.740;22.908;2024-03-23T01:25:56;93158.13;;;1.79;63.54
45793;BME280;31495;42.740;22.908;2024-03-23T01:26:55;93167.81;;;1.75;63.89
45793;BME280;31495;42.740;22.908;2024-03-23T01:27:54;93165.94;;;1.77;63.69
45793;BME280;31495;42.740;22.908;2024-03-23T01:28:53;93157.28;;;1.70;64.09
45793;BME280;31495;42.740;22.908;2024-03-23T01:29:53;93163.53;;;1.68;64.16
45793;BME280;31495;42.740;22.908;2024-03-23T01:30:52;93163.53;;;1.68;64.35
45793;BME280;31495;42.740;22.908;2024-03-23T01:31:52;93160.81;;;1.69;64.21
45793;BME280;31495;42.740;22.908;2024-03-23T01:32:51;93160.50;;;1.72;64.13
45793;BME280;31495;42.740;22.908;2024-03-23T01:33:50;93162.09;;;1.73;63.97
45793;BME280;31495;42.740;22.908;2024-03-23T01:34:50;93157.97;;;1.72;63.84
45793;BME280;31495;42.740;22.908;2024-03-23T01:35:49;93161.16;;;1.74;63.81
45793;BME280;31495;42.740;22.908;2024-03-23T01:36:48;93162.25;;;1.80;63.16
45793;BME280;31495;42.740;22.908;2024-03-23T01:37:48;93160.53;;;1.80;63.30
45793;BME280;31495;42.740;22.908;2024-03-23T01:38:47;93162.25;;;1.72;63.37
45793;BME280;31495;42.740;22.908;2024-03-23T01:39:46;93155.88;;;1.68;63.40
45793;BME280;31495;42.740;22.908;2024-03-23T01:40:46;93167.66;;;1.69;63.40
45793;BME280;31495;42.740;22.908;2024-03-23T01:41:46;93164.94;;;1.70;63.33
45793;BME280;31495;42.740;22.908;2024-03-23T01:42:55;93160.81;;;1.69;63.30
45793;BME280;31495;42.740;22.908;2024-03-23T01:43:55;93161.44;;;1.63;63.51
45793;BME280;31495;42.740;22.908;2024-03-23T01:44:54;93161.25;;;1.56;63.89
45793;BME280;31495;42.740;22.908;2024-03-23T01:45:53;93167.25;;;1.47;64.32
45793;BME280;31495;42.740;22.908;2024-03-23T01:46:53;93157.41;;;1.52;64.22
45793;BME280;31495;42.740;22.908;2024-03-23T01:47:52;93159.13;;;1.43;64.21
45793;BME280;31495;42.740;22.908;2024-03-23T01:48:52;93159.63;;;1.47;64.38
45793;BME280;31495;42.740;22.908;2024-03-23T01:49:51;93158.03;;;1.46;64.61
45793;BME280;31495;42.740;22.908;2024-03-23T01:50:51;93159.31;;;1.50;64.48
45793;BME280;31495;42.740;22.908;2024-03-23T01:51:50;93160.59;;;1.46;64.53
45793;BME280;31495;42.740;22.908;2024-03-23T01:52:49;93157.25;;;1.54;63.94
45793;BME280;31495;42.740;22.908;2024-03-23T01:53:49;93159.31;;;1.50;63.99
45793;BME280;31495;42.740;22.908;2024-03-23T01:54:48;93158.34;;;1.43;64.15
45793;BME280;31495;42.740;22.908;2024-03-23T01:55:49;93157.03;;;1.39;64.61
45793;BME280;31495;42.740;22.908;2024-03-23T01:56:49;93161.19;;;1.40;64.74
45793;BME280;31495;42.740;22.908;2024-03-23T01:57:48;93162.78;;;1.41;64.45
45793;BME280;31495;42.740;22.908;2024-03-23T01:58:48;93159.75;;;1.45;64.35
45793;BME280;31495;42.740;22.908;2024-03-23T01:59:48;93159.75;;;1.45;64.24
45793;BME280;31495;42.740;22.908;2024-03-23T02:00:47;93158.97;;;1.45;64.18
45793;BME280;31495;42.740;22.908;2024-03-23T02:01:47;93165.31;;;1.41;64.28
45793;BME280;31495;42.740;22.908;2024-03-23T02:02:46;93160.56;;;1.38;64.59
45793;BME280;31495;42.740;22.908;2024-03-23T02:03:45;93160.22;;;1.41;64.32
45793;BME280;31495;42.740;22.908;2024-03-23T02:04:45;93157.06;;;1.47;64.25
45793;BME280;31495;42.740;22.908;2024-03-23T02:05:44;93158.50;;;1.41;64.45
45793;BME280;31495;42.740;22.908;2024-03-23T02:06:44;93158.78;;;1.38;64.47
45793;BME280;31495;42.740;22.908;2024-03-23T02:07:44;93153.06;;;1.36;64.46
45793;BME280;31495;42.740;22.908;2024-03-23T02:08:43;93164.53;;;1.40;64.48
45793;BME280;31495;42.740;22.908;2024-03-23T02:09:43;93157.03;;;1.39;64.46
45793;BME280;31495;42.740;22.908;2024-03-23T02:10:43;93158.91;;;1.28;64.54
45793;BME280;31495;42.740;22.908;2024-03-23T02:13:00;93156.44;;;1.45;63.89
45793;BME280;31495;42.740;22.908;2024-03-23T02:13:59;93156.56;;;1.43;63.93
45793;BME280;31495;42.740;22.908;2024-03-23T02:14:59;93154.59;;;1.29;63.95
45793;BME280;31495;42.740;22.908;2024-03-23T02:15:58;93160.44;;;1.21;64.24
45793;BME280;31495;42.740;22.908;2024-03-23T02:16:58;93162.03;;;1.14;64.73
45793;BME280;31495;42.740;22.908;2024-03-23T02:17:57;93155.13;;;1.06;65.10
45793;BME280;31495;42.740;22.908;2024-03-23T02:18:57;93154.03;;;1.09;65.15
45793;BME280;31495;42.740;22.908;2024-03-23T02:19:56;93164.03;;;1.02;65.29
45793;BME280;31495;42.740;22.908;2024-03-23T02:20:55;93154.97;;;1.08;65.29
45793;BME280;31495;42.740;22.908;2024-03-23T02:21:54;93153.88;;;1.10;65.16
45793;BME280;31495;42.740;22.908;2024-03-23T02:22:54;93158.19;;;1.10;65.05
45793;BME280;31495;42.740;22.908;2024-03-23T02:23:53;93156.28;;;1.12;65.02
45793;BME280;31495;42.740;22.908;2024-03-23T02:24:52;93156.13;;;1.14;64.64
45793;BME280;31495;42.740;22.908;2024-03-23T02:25:52;93161.84;;;1.07;64.90
45793;BME280;31495;42.740;22.908;2024-03-23T02:26:52;93164.78;;;0.95;65.04
45793;BME280;31495;42.740;22.908;2024-03-23T02:27:52;93160.44;;;0.87;65.44
45793;BME280;31495;42.740;22.908;2024-03-23T02:28:53;93161.69;;;0.83;65.50
45793;BME280;31495;42.740;22.908;2024-03-23T02:29:52;93155.50;;;0.85;65.48
45793;BME280;31495;42.740;22.908;2024-03-23T02:30:52;93162.97;;;0.87;65.58
45793;BME280;31495;42.740;22.908;2024-03-23T02:31:51;93161.25;;;0.87;65.43
45793;BME280;31495;42.740;22.908;2024-03-23T02:32:50;93154.25;;;0.89;65.35
45793;BME280;31495;42.740;22.908;2024-03-23T02:33:50;93161.69;;;0.83;65.56
45793;BME280;31495;42.740;22.908;2024-03-23T02:34:49;93163.75;;;0.79;65.43
45793;BME280;31495;42.740;22.908;2024-03-23T02:35:49;93163.31;;;0.84;65.34
45793;BME280;31495;42.740;22.908;2024-03-23T02:36:48;93165.69;;;0.85;65.21
45793;BME280;31495;42.740;22.908;2024-03-23T02:37:48;93165.03;;;0.83;65.42
45793;BME280;31495;42.740;22.908;2024-03-23T02:38:48;93160.59;;;0.85;65.35
45793;BME280;31495;42.740;22.908;2024-03-23T02:39:47;93161.41;;;0.86;65.25
45793;BME280;31495;42.740;22.908;2024-03-23T02:40:46;93168.25;;;0.85;65.15
45793;BME280;31495;42.740;22.908;2024-03-23T02:41:46;93162.19;;;0.86;65.25
45793;BME280;31495;42.740;22.908;2024-03-23T02:42:46;93162.03;;;0.88;65.11
45793;BME280;31495;42.740;22.908;2024-03-23T02:43:46;93164.44;;;0.89;65.03
45793;BME280;31495;42.740;22.908;2024-03-23T02:44:47;93164.13;;;0.93;64.97
45793;BME280;31495;42.740;22.908;2024-03-23T02:45:46;93158.41;;;0.90;64.94
45793;BME280;31495;42.740;22.908;2024-03-23T02:46:45;93170.84;;;0.94;65.12
45793;BME280;31495;42.740;22.908;2024-03-23T02:47:45;93160.66;;;0.94;64.98
45793;BME280;31495;42.740;22.908;2024-03-23T02:48:44;93166.25;;;0.97;64.91
45793;BME280;31495;42.740;22.908;2024-03-23T02:49:44;93164.78;;;0.95;64.93
45793;BME280;31495;42.740;22.908;2024-03-23T02:50:43;93167.13;;;0.88;65.16
45793;BME280;31495;42.740;22.908;2024-03-23T02:51:42;93161.50;;;0.76;65.62
45793;BME280;31495;42.740;22.908;2024-03-23T02:52:44;93162.38;;;0.67;65.92
45793;BME280;31495;42.740;22.908;2024-03-23T02:53:43;93165.50;;;0.61;66.10
45793;BME280;31495;42.740;22.908;2024-03-23T02:54:43;93159.97;;;0.65;66.16
45793;BME280;31495;42.740;22.908;2024-03-23T02:55:43;93157.13;;;0.68;66.21
45793;BME280;31495;42.740;22.908;2024-03-23T02:56:43;93166.53;;;0.68;66.33
45793;BME280;31495;42.740;22.908;2024-03-23T02:57:42;93157.78;;;0.70;66.18
45793;BME280;31495;42.740;22.908;2024-03-23T02:58:44;93167.19;;;0.70;65.92
45793;BME280;31495;42.740;22.908;2024-03-23T02:59:44;93161.94;;;0.71;65.55
45793;BME280;31495;42.740;22.908;2024-03-23T03:00:43;93162.44;;;0.75;65.48
45793;BME280;31495;42.740;22.908;2024-03-23T03:01:43;93161.53;;;0.84;65.08
45793;BME280;31495;42.740;22.908;2024-03-23T03:02:42;93156.91;;;0.80;65.18
45793;BME280;31495;42.740;22.908;2024-03-23T03:03:41;93155.66;;;0.84;64.92
45793;BME280;31495;42.740;22.908;2024-03-23T03:04:40;93160.59;;;0.85;64.88
45793;BME280;31495;42.740;22.908;2024-03-23T03:05:40;93163.78;;;0.87;64.74
45793;BME280;31495;42.740;22.908;2024-03-23T03:06:39;93157.44;;;0.91;64.82
45793;BME280;31495;42.740;22.908;2024-03-23T03:07:40;93161.88;;;0.89;64.95
45793;BME280;31495;42.740;22.908;2024-03-23T03:08:40;93159.94;;;0.83;65.21
45793;BME280;31495;42.740;22.908;2024-03-23T03:09:39;93158.81;;;0.78;65.14
45793;BME280;31495;42.740;22.908;2024-03-23T03:10:38;93161.16;;;0.71;65.29
45793;BME280;31495;42.740;22.908;2024-03-23T03:11:38;93157.97;;;0.69;65.25
45793;BME280;31495;42.740;22.908;2024-03-23T03:12:37;93159.47;;;0.62;65.71
45793;BME280;31495;42.740;22.908;2024-03-23T03:13:36;93164.28;;;0.65;65.89
45793;BME280;31495;42.740;22.908;2024-03-23T03:14:36;93161.28;;;0.69;65.63
45793;BME280;31495;42.740;22.908;2024-03-23T03:15:35;93166.03;;;0.64;65.56
45793;BME280;31495;42.740;22.908;2024-03-23T03:16:34;93162.19;;;0.60;65.54
45793;BME280;31495;42.740;22.908;2024-03-23T03:17:34;93171.88;;;0.57;65.40
45793;BME280;31495;42.740;22.908;2024-03-23T03:18:33;93169.41;;;0.47;65.69
45793;BME280;31495;42.740;22.908;2024-03-23T03:19:32;93163.81;;;0.43;65.70
45793;BME280;31495;42.740;22.908;2024-03-23T03:20:32;93169.97;;;0.41;65.90
45793;BME280;31495;42.740;22.908;2024-03-23T03:21:31;93169.34;;;0.39;65.98
45793;BME280;31495;42.740;22.908;2024-03-23T03:22:31;93166.59;;;0.32;66.15
45793;BME280;31495;42.740;22.908;2024-03-23T03:23:30;93161.69;;;0.39;66.42
45793;BME280;31495;42.740;22.908;2024-03-23T03:24:29;93171.09;;;0.38;66.60
45793;BME280;31495;42.740;22.908;2024-03-23T03:25:29;93163.81;;;0.43;66.25
45793;BME280;31495;42.740;22.908;2024-03-23T03:26:28;93165.25;;;0.46;66.05
45793;BME280;31495;42.740;22.908;2024-03-23T03:27:27;93160.00;;;0.47;65.83
45793;BME280;31495;42.740;22.908;2024-03-23T03:28:27;93168.41;;;0.40;66.15
45793;BME280;31495;42.740;22.908;2024-03-23T03:29:29;93160.69;;;0.31;66.51
45793;BME280;31495;42.740;22.908;2024-03-23T03:30:34;93163.91;;;0.33;66.57
45793;BME280;31495;42.740;22.908;2024-03-23T03:31:33;93167.66;;;0.29;66.53
45793;BME280;31495;42.740;22.908;2024-03-23T03:32:33;93163.97;;;0.24;66.53
45793;BME280;31495;42.740;22.908;2024-03-23T03:33:32;93173.66;;;0.20;66.81
45793;BME280;31495;42.740;22.908;2024-03-23T03:34:31;93167.75;;;0.20;66.69
45793;BME280;31495;42.740;22.908;2024-03-23T03:35:31;93170.97;;;0.22;66.46
45793;BME280;31495;42.740;22.908;2024-03-23T03:36:30;93173.03;;;0.26;65.89
45793;BME280;31495;42.740;22.908;2024-03-23T03:37:29;93167.16;;;0.26;65.62
45793;BME280;31495;42.740;22.908;2024-03-23T03:38:29;93165.88;;;0.22;65.72
45793;BME280;31495;42.740;22.908;2024-03-23T03:39:28;93166.09;;;0.28;65.77
45793;BME280;31495;42.740;22.908;2024-03-23T03:40:28;93165.78;;;0.31;65.83
45793;BME280;31495;42.740;22.908;2024-03-23T03:41:27;93161.56;;;0.40;65.56
45793;BME280;31495;42.740;22.908;2024-03-23T03:42:26;93159.94;;;0.39;65.39
45793;BME280;31495;42.740;22.908;2024-03-23T03:43:26;93164.19;;;0.30;65.70
45793;BME280;31495;42.740;22.908;2024-03-23T03:44:25;93168.47;;;0.30;66.03
45793;BME280;31495;42.740;22.908;2024-03-23T03:45:24;93165.50;;;0.34;66.10
45793;BME280;31495;42.740;22.908;2024-03-23T03:46:23;93169.19;;;0.40;65.83
45793;BME280;31495;42.740;22.908;2024-03-23T03:47:23;93169.47;;;0.37;65.59
45793;BME280;31495;42.740;22.908;2024-03-23T03:48:22;93169.19;;;0.40;65.83
45793;BME280;31495;42.740;22.908;2024-03-23T03:49:21;93161.63;;;0.30;65.97
45793;BME280;31495;42.740;22.908;2024-03-23T03:50:21;93167.09;;;0.35;66.03
45793;BME280;31495;42.740;22.908;2024-03-23T03:51:20;93168.06;;;0.34;66.01
45793;BME280;31495;42.740;22.908;2024-03-23T03:52:20;93168.19;;;0.33;66.09
45793;BME280;31495;42.740;22.908;2024-03-23T03:53:19;93174.06;;;0.33;66.30
45793;BME280;31495;42.740;22.908;2024-03-23T03:54:19;93158.16;;;0.31;66.25
45793;BME280;31495;42.740;22.908;2024-03-23T03:55:18;93165.50;;;0.34;66.18
45793;BME280;31495;42.740;22.908;2024-03-23T03:56:17;93168.47;;;0.30;66.27
45793;BME280;31495;42.740;22.908;2024-03-23T03:57:17;93164.56;;;0.17;66.88
45793;BME280;31495;42.740;22.908;2024-03-23T03:58:16;93168.19;;;0.15;66.94
45793;BME280;31495;42.740;22.908;2024-03-23T03:59:18;93165.66;;;0.15;66.91
45793;BME280;31495;42.740;22.908;2024-03-23T04:00:17;93166.94;;;0.19;67.22
45793;BME280;31495;42.740;22.908;2024-03-23T04:01:16;93172.03;;;0.19;66.77
45793;BME280;31495;42.740;22.908;2024-03-23T04:02:16;93166.66;;;0.22;66.72
45793;BME280;31495;42.740;22.908;2024-03-23T04:03:15;93173.72;;;0.28;66.44
45793;BME280;31495;42.740;22.908;2024-03-23T04:04:14;93168.91;;;0.25;66.62
45793;BME280;31495;42.740;22.908;2024-03-23T04:05:15;93166.16;;;0.18;66.95
45793;BME280;31495;42.740;22.908;2024-03-23T04:06:20;93170.44;;;0.18;67.08
45793;BME280;31495;42.740;22.908;2024-03-23T04:07:20;93171.31;;;0.27;66.73
45793;BME280;31495;42.740;22.908;2024-03-23T04:08:21;93165.34;;;0.18;66.79
45793;BME280;31495;42.740;22.908;2024-03-23T04:09:21;93170.22;;;0.11;67.10
45793;BME280;31495;42.740;22.908;2024-03-23T04:10:20;93168.28;;;0.05;67.40
45793;BME280;31495;42.740;22.908;2024-03-23T04:11:19;93165.13;;;0.11;67.14
45793;BME280;31495;42.740;22.908;2024-03-23T04:12:18;93170.06;;;0.13;67.31
45793;BME280;31495;42.740;22.908;2024-03-23T04:13:18;93165.19;;;0.20;67.12
45793;BME280;31495;42.740;22.908;2024-03-23T04:14:17;93170.59;;;0.16;67.01
45793;BME280;31495;42.740;22.908;2024-03-23T04:15:17;93173.44;;;0.13;66.94
45793;BME280;31495;42.740;22.908;2024-03-23T04:16:29;93170.44;;;0.18;66.52
45793;BME280;31495;42.740;22.908;2024-03-23T04:17:28;93175.31;;;0.11;66.38
45793;BME280;31495;42.740;22.908;2024-03-23T04:18:31;93170.75;;;0.15;66.18
45793;BME280;31495;42.740;22.908;2024-03-23T04:19:30;93173.72;;;0.10;66.32
45793;BME280;31495;42.740;22.908;2024-03-23T04:20:29;93163.41;;;0.12;66.40
45793;BME280;31495;42.740;22.908;2024-03-23T04:21:29;93165.94;;;0.12;66.38
45793;BME280;31495;42.740;22.908;2024-03-23T04:22:28;93167.03;;;0.09;66.36
45793;BME280;31495;42.740;22.908;2024-03-23T04:23:28;93166.00;;;0.02;66.77
45793;BME280;31495;42.740;22.908;2024-03-23T04:24:27;93167.75;;;0.02;66.77
45793;BME280;31495;42.740;22.908;2024-03-23T04:25:26;93173.13;;;-0.02;66.95
45793;BME280;31495;42.740;22.908;2024-03-23T04:26:26;93167.31;;;0.06;67.03
45793;BME280;31495;42.740;22.908;2024-03-23T04:27:25;93166.38;;;0.07;66.67
45793;BME280;31495;42.740;22.908;2024-03-23T04:28:25;93171.38;;;0.17;66.32
45793;BME280;31495;42.740;22.908;2024-03-23T04:29:24;93166.16;;;0.18;66.15
45793;BME280;31495;42.740;22.908;2024-03-23T04:30:24;93171.69;;;0.14;66.24
45793;BME280;31495;42.740;22.908;2024-03-23T04:31:25;93169.28;;;0.12;66.04
45793;BME280;31495;42.740;22.908;2024-03-23T04:32:24;93173.06;;;0.08;66.33
45793;BME280;31495;42.740;22.908;2024-03-23T04:33:24;93171.97;;;0.11;66.11
45793;BME280;31495;42.740;22.908;2024-03-23T04:34:23;93165.72;;;0.05;66.26
45793;BME280;31495;42.740;22.908;2024-03-23T04:35:22;93166.94;;;0.01;66.65
45793;BME280;31495;42.740;22.908;2024-03-23T04:36:24;93174.50;;;-0.07;66.57
45793;BME280;31495;42.740;22.908;2024-03-23T04:37:23;93172.53;;;-0.13;67.17
45793;BME280;31495;42.740;22.908;2024-03-23T04:38:22;93180.06;;;-0.22;67.63
45793;BME280;31495;42.740;22.908;2024-03-23T04:39:22;93172.91;;;-0.26;67.65
45793;BME280;31495;42.740;22.908;2024-03-23T04:40:21;93181.88;;;-0.32;67.56
45793;BME280;31495;42.740;22.908;2024-03-23T04:41:20;93184.69;;;-0.35;68.25
45793;BME280;31495;42.740;22.908;2024-03-23T04:42:20;93181.66;;;-0.39;68.13
45793;BME280;31495;42.740;22.908;2024-03-23T04:43:19;93182.03;;;-0.33;68.21
45793;BME280;31495;42.740;22.908;2024-03-23T04:44:18;93175.31;;;-0.34;68.22
45793;BME280;31495;42.740;22.908;2024-03-23T04:45:17;93180.13;;;-0.31;68.40
45793;BME280;31495;42.740;22.908;2024-03-23T04:46:17;93178.13;;;-0.28;67.95
45793;BME280;31495;42.740;22.908;2024-03-23T04:47:17;93181.47;;;-0.27;68.05
45793;BME280;31495;42.740;22.908;2024-03-23T04:48:20;93184.00;;;-0.27;67.82
45793;BME280;31495;42.740;22.908;2024-03-23T04:49:20;93179.72;;;-0.27;67.87
45793;BME280;31495;42.740;22.908;2024-03-23T04:50:19;93186.25;;;-0.24;67.72
45793;BME280;31495;42.740;22.908;2024-03-23T04:51:22;93182.34;;;-0.19;67.66
45793;BME280;31495;42.740;22.908;2024-03-23T04:52:22;93189.88;;;-0.27;67.80
45793;BME280;31495;42.740;22.908;2024-03-23T04:53:21;93186.69;;;-0.29;68.11
45793;BME280;31495;42.740;22.908;2024-03-23T04:54:21;93188.66;;;-0.23;68.08
45793;BME280;31495;42.740;22.908;2024-03-23T04:55:20;93180.06;;;-0.22;67.83
45793;BME280;31495;42.740;22.908;2024-03-23T04:56:21;93190.31;;;-0.13;67.41
45793;BME280;31495;42.740;22.908;2024-03-23T04:57:21;93189.03;;;-0.17;67.37
45793;BME280;31495;42.740;22.908;2024-03-23T04:58:21;93190.94;;;-0.20;67.43
45793;BME280;31495;42.740;22.908;2024-03-23T04:59:20;93186.13;;;-0.23;67.19
45793;BME280;31495;42.740;22.908;2024-03-23T05:00:20;93190.78;;;-0.18;66.99
45793;BME280;31495;42.740;22.908;2024-03-23T05:01:19;93189.97;;;-0.19;66.94
45793;BME280;31495;42.740;22.908;2024-03-23T05:02:18;93195.56;;;-0.15;67.08
45793;BME280;31495;42.740;22.908;2024-03-23T05:03:18;93184.75;;;-0.17;66.97
45793;BME280;31495;42.740;22.908;2024-03-23T05:04:18;93186.84;;;-0.12;66.81
45793;BME280;31495;42.740;22.908;2024-03-23T05:05:17;93182.41;;;-0.10;66.88
45793;BME280;31495;42.740;22.908;2024-03-23T05:06:17;93181.47;;;-0.09;66.93
45793;BME280;31495;42.740;22.908;2024-03-23T05:07:17;93182.13;;;-0.07;66.63
45793;BME280;31495;42.740;22.908;2024-03-23T05:08:16;93179.94;;;-0.02;66.57
45793;BME280;31495;42.740;22.908;2024-03-23T05:09:16;93173.34;;;0.05;66.68
45793;BME280;31495;42.740;22.908;2024-03-23T05:10:16;93175.75;;;0.07;66.61
45793;BME280;31495;42.740;22.908;2024-03-23T05:11:15;93177.47;;;0.06;66.69
45793;BME280;31495;42.740;22.908;2024-03-23T05:12:15;93176.19;;;0.02;66.78
45793;BME280;31495;42.740;22.908;2024-03-23T05:13:14;93177.63;;;0.05;66.97
45793;BME280;31495;42.740;22.908;2024-03-23T05:14:14;93182.00;;;0.12;66.65
45793;BME280;31495;42.740;22.908;2024-03-23T05:15:14;93172.81;;;0.20;66.63
45793;BME280;31495;42.740;22.908;2024-03-23T05:16:13;93176.19;;;0.20;66.62
45793;BME280;31495;42.740;22.908;2024-03-23T05:17:12;93179.88;;;0.26;66.89
45793;BME280;31495;42.740;22.908;2024-03-23T05:18:12;93179.16;;;0.33;66.99
45793;BME280;31495;42.740;22.908;2024-03-23T05:19:12;93179.47;;;0.30;67.11
45793;BME280;31495;42.740;22.908;2024-03-23T05:20:11;93182.50;;;0.34;67.04
45793;BME280;31495;42.740;22.908;2024-03-23T05:21:11;93179.03;;;0.35;67.21
45793;BME280;31495;42.740;22.908;2024-03-23T05:22:10;93175.91;;;0.41;67.02
45793;BME280;31495;42.740;22.908;2024-03-23T05:23:10;93175.81;;;0.51;67.00
45793;BME280;31495;42.740;22.908;2024-03-23T05:24:09;93171.81;;;0.48;67.01
45793;BME280;31495;42.740;22.908;2024-03-23T05:25:09;93177.09;;;0.55;67.13
45793;BME280;31495;42.740;22.908;2024-03-23T05:26:09;93173.47;;;0.58;66.91
45793;BME280;31495;42.740;22.908;2024-03-23T05:27:08;93175.53;;;0.62;66.51
45793;BME280;31495;42.740;22.908;2024-03-23T05:28:08;93176.88;;;0.66;66.31
45793;BME280;31495;42.740;22.908;2024-03-23T05:29:07;93173.00;;;0.62;66.16
45793;BME280;31495;42.740;22.908;2024-03-23T05:30:10;93175.53;;;0.62;65.95
45793;BME280;31495;42.740;22.908;2024-03-23T05:31:09;93178.09;;;0.62;66.03
45793;BME280;31495;42.740;22.908;2024-03-23T05:32:09;93172.28;;;0.70;65.74
45793;BME280;31495;42.740;22.908;2024-03-23T05:33:08;93180.41;;;0.73;65.68
45793;BME280;31495;42.740;22.908;2024-03-23T05:34:08;93171.03;;;0.74;65.86
45793;BME280;31495;42.740;22.908;2024-03-23T05:35:08;93173.13;;;0.79;65.81
45793;BME280;31495;42.740;22.908;2024-03-23T05:36:08;93171.38;;;0.79;65.95
45793;BME280;31495;42.740;22.908;2024-03-23T05:37:10;93170.13;;;0.83;65.83
45793;BME280;31495;42.740;22.908;2024-03-23T05:38:09;93174.19;;;0.94;66.10
45793;BME280;31495;42.740;22.908;2024-03-23T05:39:09;93166.88;;;0.99;65.98
45793;BME280;31495;42.740;22.908;2024-03-23T05:40:08;93163.53;;;0.99;66.16
45793;BME280;31495;42.740;22.908;2024-03-23T05:41:09;93165.31;;;1.06;66.16
45793;BME280;31495;42.740;22.908;2024-03-23T05:42:09;93165.69;;;1.12;65.90
45793;BME280;31495;42.740;22.908;2024-03-23T05:43:08;93176.97;;;1.09;66.01
45793;BME280;31495;42.740;22.908;2024-03-23T05:44:08;93172.19;;;1.06;66.37
45793;BME280;31495;42.740;22.908;2024-03-23T05:45:07;93167.41;;;1.11;66.47
45793;BME280;31495;42.740;22.908;2024-03-23T05:46:07;93167.13;;;1.14;66.44
45793;BME280;31495;42.740;22.908;2024-03-23T05:47:07;93166.97;;;1.16;66.52
45793;BME280;31495;42.740;22.908;2024-03-23T05:48:07;93172.09;;;1.24;66.46
45793;BME280;31495;42.740;22.908;2024-03-23T05:49:07;93168.75;;;1.23;66.62
45793;BME280;31495;42.740;22.908;2024-03-23T05:50:06;93170.69;;;1.29;66.36
45793;BME280;31495;42.740;22.908;2024-03-23T05:51:05;93164.31;;;1.25;66.57
45793;BME280;31495;42.740;22.908;2024-03-23T05:52:04;93164.94;;;1.27;66.59
45793;BME280;31495;42.740;22.908;2024-03-23T05:53:04;93167.50;;;1.27;66.45
45793;BME280;31495;42.740;22.908;2024-03-23T05:54:04;93170.53;;;1.31;66.23
45793;BME280;31495;42.740;22.908;2024-03-23T05:55:04;93166.41;;;1.30;66.28
45793;BME280;31495;42.740;22.908;2024-03-23T05:56:04;93169.13;;;1.37;66.26
45793;BME280;31495;42.740;22.908;2024-03-23T05:57:04;93161.97;;;1.40;66.29
45793;BME280;31495;42.740;22.908;2024-03-23T05:58:03;93165.03;;;1.44;66.01
45793;BME280;31495;42.740;22.908;2024-03-23T05:59:03;93166.81;;;1.52;66.01
45793;BME280;31495;42.740;22.908;2024-03-23T06:00:02;93162.50;;;1.52;66.15
45793;BME280;31495;42.740;22.908;2024-03-23T06:01:02;93158.56;;;1.58;66.26
45793;BME280;31495;42.740;22.908;2024-03-23T06:02:02;93163.81;;;1.64;66.22
45793;BME280;31495;42.740;22.908;2024-03-23T06:03:03;93165.91;;;1.69;66.04
45793;BME280;31495;42.740;22.908;2024-03-23T06:04:02;93161.44;;;1.71;65.87
45793;BME280;31495;42.740;22.908;2024-03-23T06:05:02;93160.00;;;1.69;66.26
45793;BME280;31495;42.740;22.908;2024-03-23T06:06:02;93157.31;;;1.78;66.04
45793;BME280;31495;42.740;22.908;2024-03-23T06:07:01;93161.97;;;1.83;66.07
45793;BME280;31495;42.740;22.908;2024-03-23T06:08:00;93158.94;;;1.88;66.00
45793;BME280;31495;42.740;22.908;2024-03-23T06:08:59;93161.50;;;1.88;66.26
45793;BME280;31495;42.740;22.908;2024-03-23T06:09:59;93161.03;;;1.92;66.23